Terminal Aerodrome Forecast
Issued by NWS

Home | Current Version | Previous Version | Text Only | Print | Product List | Glossary On
Versions: 1 2 3 4 5 6 7 8 9 10 11 12 13
327
FTUS45 KFGZ 271120
TAFPGA
TAF
KPGA 271120Z 2712/2812 VRB05KT P6SM BKN250
     FM271900 27010G18KT P6SM VCSH BKN070 BKN120
     FM280000 30010G20KT P6SM SCT070 BKN120
     FM280600 30010KT P6SM SCT070 BKN120=

USA.gov is the U.S. government's official web portal to all federal, state and local government web resources and services.